sensor_id;sensor_type;location;lat;lon;timestamp;pressure;altitude;pressure_sealevel;temperature;humidity
60705;BME280;46545;38.014;-7.874;2022-09-12T00:00:01;65176.66;;;-145.13;100.00
60705;BME280;46545;38.014;-7.874;2022-09-12T00:02:11;65176.66;;;-145.13;100.00
60705;BME280;46545;38.014;-7.874;2022-09-12T00:04:12;65176.66;;;-145.13;100.00
60705;BME280;46545;38.014;-7.874;2022-09-12T00:06:32;65176.66;;;-145.13;100.00
60705;BME280;46545;38.014;-7.874;2022-09-12T00:08:33;65176.66;;;-145.13;100.00
60705;BME280;46545;38.014;-7.874;2022-09-12T00:10:38;65176.66;;;-145.13;100.00
60705;BME280;46545;38.014;-7.874;2022-09-12T00:12:39;65176.66;;;-145.13;100.00
60705;BME280;46545;38.014;-7.874;2022-09-12T00:14:39;65176.66;;;-145.13;100.00
60705;BME280;46545;38.014;-7.874;2022-09-12T00:16:40;65176.66;;;-145.13;100.00
60705;BME280;46545;38.014;-7.874;2022-09-12T00:18:40;65176.66;;;-145.13;100.00
60705;BME280;46545;38.014;-7.874;2022-09-12T00:20:42;65176.66;;;-145.13;100.00
60705;BME280;46545;38.014;-7.874;2022-09-12T00:22:42;65176.66;;;-145.13;100.00
60705;BME280;46545;38.014;-7.874;2022-09-12T00:24:43;65176.66;;;-145.13;100.00
60705;BME280;46545;38.014;-7.874;2022-09-12T00:26:43;65176.66;;;-145.13;100.00
60705;BME280;46545;38.014;-7.874;2022-09-12T00:28:44;65176.66;;;-145.13;100.00
60705;BME280;46545;38.014;-7.874;2022-09-12T00:30:45;65176.66;;;-145.13;100.00
60705;BME280;46545;38.014;-7.874;2022-09-12T00:32:46;65176.66;;;-145.13;100.00
60705;BME280;46545;38.014;-7.874;2022-09-12T00:34:46;65176.66;;;-145.13;100.00
60705;BME280;46545;38.014;-7.874;2022-09-12T00:36:47;65176.66;;;-145.13;100.00
60705;BME280;46545;38.014;-7.874;2022-09-12T00:38:48;65176.66;;;-145.13;100.00
60705;BME280;46545;38.014;-7.874;2022-09-12T00:40:49;65176.66;;;-145.13;100.00
60705;BME280;46545;38.014;-7.874;2022-09-12T00:42:49;65176.66;;;-145.13;100.00
60705;BME280;46545;38.014;-7.874;2022-09-12T00:44:51;65176.66;;;-145.13;100.00
60705;BME280;46545;38.014;-7.874;2022-09-12T00:48:56;65176.66;;;-145.13;100.00
60705;BME280;46545;38.014;-7.874;2022-09-12T00:50:58;65176.66;;;-145.13;100.00
60705;BME280;46545;38.014;-7.874;2022-09-12T00:53:03;65176.66;;;-145.13;100.00
60705;BME280;46545;38.014;-7.874;2022-09-12T00:55:10;65176.66;;;-145.13;100.00
60705;BME280;46545;38.014;-7.874;2022-09-12T00:57:11;65176.66;;;-145.13;100.00
60705;BME280;46545;38.014;-7.874;2022-09-12T00:59:14;65176.66;;;-145.13;100.00
60705;BME280;46545;38.014;-7.874;2022-09-12T01:01:16;65176.66;;;-145.13;100.00
60705;BME280;46545;38.014;-7.874;2022-09-12T01:03:18;65176.66;;;-145.13;100.00
60705;BME280;46545;38.014;-7.874;2022-09-12T01:05:20;65176.66;;;-145.13;100.00
60705;BME280;46545;38.014;-7.874;2022-09-12T01:07:21;65176.66;;;-145.13;100.00
60705;BME280;46545;38.014;-7.874;2022-09-12T01:09:22;65176.66;;;-145.13;100.00
60705;BME280;46545;38.014;-7.874;2022-09-12T01:11:23;65176.66;;;-145.13;100.00
60705;BME280;46545;38.014;-7.874;2022-09-12T01:13:23;65176.66;;;-145.13;100.00
60705;BME280;46545;38.014;-7.874;2022-09-12T01:15:25;65176.66;;;-145.13;100.00
60705;BME280;46545;38.014;-7.874;2022-09-12T01:17:27;65176.66;;;-145.13;100.00
60705;BME280;46545;38.014;-7.874;2022-09-12T01:37:13;65176.66;;;-145.13;100.00
60705;BME280;46545;38.014;-7.874;2022-09-12T01:39:36;65176.66;;;-145.13;100.00
60705;BME280;46545;38.014;-7.874;2022-09-12T01:41:55;65176.66;;;-145.13;100.00
60705;BME280;46545;38.014;-7.874;2022-09-12T01:46:15;65176.66;;;-145.13;100.00
60705;BME280;46545;38.014;-7.874;2022-09-12T01:48:23;65176.66;;;-145.13;100.00
60705;BME280;46545;38.014;-7.874;2022-09-12T01:50:27;65176.66;;;-145.13;100.00
60705;BME280;46545;38.014;-7.874;2022-09-12T01:52:35;65176.66;;;-145.13;100.00
60705;BME280;46545;38.014;-7.874;2022-09-12T01:55:23;65176.66;;;-145.13;100.00
60705;BME280;46545;38.014;-7.874;2022-09-12T01:56:57;65176.66;;;-145.13;100.00
60705;BME280;46545;38.014;-7.874;2022-09-12T01:59:04;65176.66;;;-145.13;100.00
60705;BME280;46545;38.014;-7.874;2022-09-12T02:01:13;65176.66;;;-145.13;100.00
60705;BME280;46545;38.014;-7.874;2022-09-12T02:03:16;65176.66;;;-145.13;100.00
60705;BME280;46545;38.014;-7.874;2022-09-12T02:07:26;65176.66;;;-145.13;100.00
60705;BME280;46545;38.014;-7.874;2022-09-12T02:09:39;65176.66;;;-145.13;100.00
60705;BME280;46545;38.014;-7.874;2022-09-12T02:11:42;65176.66;;;-145.13;100.00
60705;BME280;46545;38.014;-7.874;2022-09-12T02:15:49;65176.66;;;-145.13;100.00
60705;BME280;46545;38.014;-7.874;2022-09-12T02:17:52;65176.66;;;-145.13;100.00
60705;BME280;46545;38.014;-7.874;2022-09-12T02:20:01;65176.66;;;-145.13;100.00
60705;BME280;46545;38.014;-7.874;2022-09-12T02:22:02;65176.66;;;-145.13;100.00
60705;BME280;46545;38.014;-7.874;2022-09-12T02:24:04;65176.66;;;-145.13;100.00
60705;BME280;46545;38.014;-7.874;2022-09-12T02:26:12;65176.66;;;-145.13;100.00
60705;BME280;46545;38.014;-7.874;2022-09-12T02:28:16;65176.66;;;-145.13;100.00
60705;BME280;46545;38.014;-7.874;2022-09-12T02:30:17;65176.66;;;-145.13;100.00
60705;BME280;46545;38.014;-7.874;2022-09-12T02:32:22;65176.66;;;-145.13;100.00
60705;BME280;46545;38.014;-7.874;2022-09-12T02:36:48;65176.66;;;-145.13;100.00
60705;BME280;46545;38.014;-7.874;2022-09-12T02:38:51;65176.66;;;-145.13;100.00
60705;BME280;46545;38.014;-7.874;2022-09-12T02:40:52;65176.66;;;-145.13;100.00
60705;BME280;46545;38.014;-7.874;2022-09-12T02:42:53;65176.66;;;-145.13;100.00
60705;BME280;46545;38.014;-7.874;2022-09-12T02:44:54;65176.66;;;-145.13;100.00
60705;BME280;46545;38.014;-7.874;2022-09-12T02:46:58;65176.66;;;-145.13;100.00
60705;BME280;46545;38.014;-7.874;2022-09-12T02:49:00;65176.66;;;-145.13;100.00
60705;BME280;46545;38.014;-7.874;2022-09-12T02:51:00;65176.66;;;-145.13;100.00
60705;BME280;46545;38.014;-7.874;2022-09-12T02:53:01;65176.66;;;-145.13;100.00
60705;BME280;46545;38.014;-7.874;2022-09-12T02:55:05;65176.66;;;-145.13;100.00
60705;BME280;46545;38.014;-7.874;2022-09-12T02:57:15;65176.66;;;-145.13;100.00
60705;BME280;46545;38.014;-7.874;2022-09-12T02:59:17;65176.66;;;-145.13;100.00
60705;BME280;46545;38.014;-7.874;2022-09-12T03:01:26;65176.66;;;-145.13;100.00
60705;BME280;46545;38.014;-7.874;2022-09-12T03:07:51;65176.66;;;-145.13;100.00
60705;BME280;46545;38.014;-7.874;2022-09-12T03:10:02;65176.66;;;-145.13;100.00
60705;BME280;46545;38.014;-7.874;2022-09-12T03:16:32;65176.66;;;-145.13;100.00
60705;BME280;46545;38.014;-7.874;2022-09-12T03:22:58;65176.66;;;-145.13;100.00
60705;BME280;46545;38.014;-7.874;2022-09-12T03:25:09;65176.66;;;-145.13;100.00
60705;BME280;46545;38.014;-7.874;2022-09-12T03:27:35;65176.66;;;-145.13;100.00
60705;BME280;46545;38.014;-7.874;2022-09-12T03:29:35;65176.66;;;-145.13;100.00
60705;BME280;46545;38.014;-7.874;2022-09-12T03:31:36;65176.66;;;-145.13;100.00
60705;BME280;46545;38.014;-7.874;2022-09-12T03:33:38;65176.66;;;-145.13;100.00
60705;BME280;46545;38.014;-7.874;2022-09-12T03:35:39;65176.66;;;-145.13;100.00
60705;BME280;46545;38.014;-7.874;2022-09-12T03:37:39;65176.66;;;-145.13;100.00
60705;BME280;46545;38.014;-7.874;2022-09-12T03:39:40;65176.66;;;-145.13;100.00
60705;BME280;46545;38.014;-7.874;2022-09-12T03:41:40;65176.66;;;-145.13;100.00
60705;BME280;46545;38.014;-7.874;2022-09-12T03:43:41;65176.66;;;-145.13;100.00
60705;BME280;46545;38.014;-7.874;2022-09-12T03:45:42;65176.66;;;-145.13;100.00
60705;BME280;46545;38.014;-7.874;2022-09-12T03:47:42;65176.66;;;-145.13;100.00
60705;BME280;46545;38.014;-7.874;2022-09-12T03:49:42;65176.66;;;-145.13;100.00
60705;BME280;46545;38.014;-7.874;2022-09-12T03:51:43;65176.66;;;-145.13;100.00
60705;BME280;46545;38.014;-7.874;2022-09-12T03:53:43;65176.66;;;-145.13;100.00
60705;BME280;46545;38.014;-7.874;2022-09-12T03:55:44;65176.66;;;-145.13;100.00
60705;BME280;46545;38.014;-7.874;2022-09-12T03:57:44;65176.66;;;-145.13;100.00
60705;BME280;46545;38.014;-7.874;2022-09-12T03:59:47;65176.66;;;-145.13;100.00
60705;BME280;46545;38.014;-7.874;2022-09-12T04:01:47;65176.66;;;-145.13;100.00
60705;BME280;46545;38.014;-7.874;2022-09-12T04:03:48;65176.66;;;-145.13;100.00
60705;BME280;46545;38.014;-7.874;2022-09-12T04:05:49;65176.66;;;-145.13;100.00
60705;BME280;46545;38.014;-7.874;2022-09-12T04:07:50;65176.66;;;-145.13;100.00
60705;BME280;46545;38.014;-7.874;2022-09-12T04:09:50;65176.66;;;-145.13;100.00
60705;BME280;46545;38.014;-7.874;2022-09-12T04:11:52;65176.66;;;-145.13;100.00
60705;BME280;46545;38.014;-7.874;2022-09-12T04:13:52;65176.66;;;-145.13;100.00
60705;BME280;46545;38.014;-7.874;2022-09-12T04:15:57;65176.66;;;-145.13;100.00
60705;BME280;46545;38.014;-7.874;2022-09-12T04:17:57;65176.66;;;-145.13;100.00
60705;BME280;46545;38.014;-7.874;2022-09-12T04:19:58;65176.66;;;-145.13;100.00
60705;BME280;46545;38.014;-7.874;2022-09-12T04:21:58;65176.66;;;-145.13;100.00
60705;BME280;46545;38.014;-7.874;2022-09-12T04:23:59;65176.66;;;-145.13;100.00
60705;BME280;46545;38.014;-7.874;2022-09-12T04:26:00;65176.66;;;-145.13;100.00
60705;BME280;46545;38.014;-7.874;2022-09-12T04:28:01;65176.66;;;-145.13;100.00
60705;BME280;46545;38.014;-7.874;2022-09-12T04:30:02;65176.66;;;-145.13;100.00
60705;BME280;46545;38.014;-7.874;2022-09-12T04:32:02;65176.66;;;-145.13;100.00
60705;BME280;46545;38.014;-7.874;2022-09-12T04:34:03;65176.66;;;-145.13;100.00
60705;BME280;46545;38.014;-7.874;2022-09-12T04:36:05;65176.66;;;-145.13;100.00
60705;BME280;46545;38.014;-7.874;2022-09-12T04:38:06;65176.66;;;-145.13;100.00
60705;BME280;46545;38.014;-7.874;2022-09-12T04:40:07;65176.66;;;-145.13;100.00
60705;BME280;46545;38.014;-7.874;2022-09-12T04:42:07;65176.66;;;-145.13;100.00
60705;BME280;46545;38.014;-7.874;2022-09-12T04:44:12;65176.66;;;-145.13;100.00
60705;BME280;46545;38.014;-7.874;2022-09-12T04:46:13;65176.66;;;-145.13;100.00
60705;BME280;46545;38.014;-7.874;2022-09-12T04:48:15;65176.66;;;-145.13;100.00
60705;BME280;46545;38.014;-7.874;2022-09-12T04:50:16;65176.66;;;-145.13;100.00
60705;BME280;46545;38.014;-7.874;2022-09-12T04:52:16;65176.66;;;-145.13;100.00
60705;BME280;46545;38.014;-7.874;2022-09-12T04:54:17;65176.66;;;-145.13;100.00
60705;BME280;46545;38.014;-7.874;2022-09-12T04:56:18;65176.66;;;-145.13;100.00
60705;BME280;46545;38.014;-7.874;2022-09-12T04:58:19;65176.66;;;-145.13;100.00
60705;BME280;46545;38.014;-7.874;2022-09-12T05:00:20;65176.66;;;-145.13;100.00
60705;BME280;46545;38.014;-7.874;2022-09-12T05:02:20;65176.66;;;-145.13;100.00
60705;BME280;46545;38.014;-7.874;2022-09-12T05:04:21;65176.66;;;-145.13;100.00
60705;BME280;46545;38.014;-7.874;2022-09-12T05:06:23;65176.66;;;-145.13;100.00
60705;BME280;46545;38.014;-7.874;2022-09-12T05:08:23;65176.66;;;-145.13;100.00
60705;BME280;46545;38.014;-7.874;2022-09-12T05:10:24;65176.66;;;-145.13;100.00
60705;BME280;46545;38.014;-7.874;2022-09-12T05:12:26;65176.66;;;-145.13;100.00
60705;BME280;46545;38.014;-7.874;2022-09-12T05:14:26;65176.66;;;-145.13;100.00
60705;BME280;46545;38.014;-7.874;2022-09-12T05:16:28;65176.66;;;-145.13;100.00
60705;BME280;46545;38.014;-7.874;2022-09-12T05:18:32;65176.66;;;-145.13;100.00
60705;BME280;46545;38.014;-7.874;2022-09-12T05:20:33;65176.66;;;-145.13;100.00
60705;BME280;46545;38.014;-7.874;2022-09-12T05:22:33;65176.66;;;-145.13;100.00
60705;BME280;46545;38.014;-7.874;2022-09-12T05:24:34;65176.66;;;-145.13;100.00
60705;BME280;46545;38.014;-7.874;2022-09-12T05:26:34;65176.66;;;-145.13;100.00
60705;BME280;46545;38.014;-7.874;2022-09-12T05:28:35;65176.66;;;-145.13;100.00
60705;BME280;46545;38.014;-7.874;2022-09-12T05:30:36;65176.66;;;-145.13;100.00
60705;BME280;46545;38.014;-7.874;2022-09-12T05:32:37;65176.66;;;-145.13;100.00
60705;BME280;46545;38.014;-7.874;2022-09-12T05:34:38;65176.66;;;-145.13;100.00
60705;BME280;46545;38.014;-7.874;2022-09-12T05:36:38;65176.66;;;-145.13;100.00
60705;BME280;46545;38.014;-7.874;2022-09-12T05:38:39;65176.66;;;-145.13;100.00
60705;BME280;46545;38.014;-7.874;2022-09-12T05:40:39;65176.66;;;-145.13;100.00
60705;BME280;46545;38.014;-7.874;2022-09-12T05:42:40;65176.66;;;-145.13;100.00
60705;BME280;46545;38.014;-7.874;2022-09-12T05:44:40;65176.66;;;-145.13;100.00
60705;BME280;46545;38.014;-7.874;2022-09-12T05:46:41;65176.66;;;-145.13;100.00
60705;BME280;46545;38.014;-7.874;2022-09-12T05:48:43;65176.66;;;-145.13;100.00
60705;BME280;46545;38.014;-7.874;2022-09-12T05:50:43;65176.66;;;-145.13;100.00
60705;BME280;46545;38.014;-7.874;2022-09-12T05:52:44;65176.66;;;-145.13;100.00
60705;BME280;46545;38.014;-7.874;2022-09-12T05:54:44;65176.66;;;-145.13;100.00
60705;BME280;46545;38.014;-7.874;2022-09-12T05:56:46;65176.66;;;-145.13;100.00
60705;BME280;46545;38.014;-7.874;2022-09-12T05:58:51;65176.66;;;-145.13;100.00
60705;BME280;46545;38.014;-7.874;2022-09-12T06:00:52;65176.66;;;-145.13;100.00
60705;BME280;46545;38.014;-7.874;2022-09-12T06:02:52;65176.66;;;-145.13;100.00
60705;BME280;46545;38.014;-7.874;2022-09-12T06:04:53;65176.66;;;-145.13;100.00
60705;BME280;46545;38.014;-7.874;2022-09-12T06:06:53;65176.66;;;-145.13;100.00
60705;BME280;46545;38.014;-7.874;2022-09-12T06:09:00;65176.66;;;-145.13;100.00
60705;BME280;46545;38.014;-7.874;2022-09-12T06:11:01;65176.66;;;-145.13;100.00
60705;BME280;46545;38.014;-7.874;2022-09-12T06:13:02;65176.66;;;-145.13;100.00
60705;BME280;46545;38.014;-7.874;2022-09-12T06:15:03;65176.66;;;-145.13;100.00
60705;BME280;46545;38.014;-7.874;2022-09-12T06:17:04;65176.66;;;-145.13;100.00
60705;BME280;46545;38.014;-7.874;2022-09-12T06:19:06;65176.66;;;-145.13;100.00
60705;BME280;46545;38.014;-7.874;2022-09-12T06:21:07;65176.66;;;-145.13;100.00
60705;BME280;46545;38.014;-7.874;2022-09-12T06:23:08;65176.66;;;-145.13;100.00
60705;BME280;46545;38.014;-7.874;2022-09-12T06:25:09;65176.66;;;-145.13;100.00
60705;BME280;46545;38.014;-7.874;2022-09-12T06:27:10;65176.66;;;-145.13;100.00
60705;BME280;46545;38.014;-7.874;2022-09-12T06:29:10;65176.66;;;-145.13;100.00
60705;BME280;46545;38.014;-7.874;2022-09-12T06:31:11;65176.66;;;-145.13;100.00
60705;BME280;46545;38.014;-7.874;2022-09-12T06:33:12;65176.66;;;-145.13;100.00
60705;BME280;46545;38.014;-7.874;2022-09-12T06:35:13;65176.66;;;-145.13;100.00
60705;BME280;46545;38.014;-7.874;2022-09-12T06:37:13;65176.66;;;-145.13;100.00
60705;BME280;46545;38.014;-7.874;2022-09-12T06:39:15;65176.66;;;-145.13;100.00
60705;BME280;46545;38.014;-7.874;2022-09-12T06:41:16;65176.66;;;-145.13;100.00
60705;BME280;46545;38.014;-7.874;2022-09-12T06:43:16;65176.66;;;-145.13;100.00
60705;BME280;46545;38.014;-7.874;2022-09-12T06:45:17;65176.66;;;-145.13;100.00
60705;BME280;46545;38.014;-7.874;2022-09-12T06:47:19;65176.66;;;-145.13;100.00
60705;BME280;46545;38.014;-7.874;2022-09-12T06:49:20;65176.66;;;-145.13;100.00
60705;BME280;46545;38.014;-7.874;2022-09-12T06:51:20;65176.66;;;-145.13;100.00
60705;BME280;46545;38.014;-7.874;2022-09-12T06:53:21;65176.66;;;-145.13;100.00
60705;BME280;46545;38.014;-7.874;2022-09-12T06:55:21;65176.66;;;-145.13;100.00
60705;BME280;46545;38.014;-7.874;2022-09-12T06:57:23;65176.66;;;-145.13;100.00
60705;BME280;46545;38.014;-7.874;2022-09-12T06:59:24;65176.66;;;-145.13;100.00
60705;BME280;46545;38.014;-7.874;2022-09-12T07:01:26;65176.66;;;-145.13;100.00
60705;BME280;46545;38.014;-7.874;2022-09-12T07:03:27;65176.66;;;-145.13;100.00
60705;BME280;46545;38.014;-7.874;2022-09-12T07:05:27;65176.66;;;-145.13;100.00
60705;BME280;46545;38.014;-7.874;2022-09-12T07:07:28;65176.66;;;-145.13;100.00
60705;BME280;46545;38.014;-7.874;2022-09-12T07:09:30;65176.66;;;-145.13;100.00
60705;BME280;46545;38.014;-7.874;2022-09-12T07:11:32;65176.66;;;-145.13;100.00
60705;BME280;46545;38.014;-7.874;2022-09-12T07:13:33;65176.66;;;-145.13;100.00
60705;BME280;46545;38.014;-7.874;2022-09-12T07:15:34;65176.66;;;-145.13;100.00
60705;BME280;46545;38.014;-7.874;2022-09-12T07:17:35;65176.66;;;-145.13;100.00
60705;BME280;46545;38.014;-7.874;2022-09-12T07:19:36;65176.66;;;-145.13;100.00
60705;BME280;46545;38.014;-7.874;2022-09-12T07:21:36;65176.66;;;-145.13;100.00
60705;BME280;46545;38.014;-7.874;2022-09-12T07:23:39;65176.66;;;-145.13;100.00
60705;BME280;46545;38.014;-7.874;2022-09-12T07:25:41;65176.66;;;-145.13;100.00
60705;BME280;46545;38.014;-7.874;2022-09-12T07:27:41;65176.66;;;-145.13;100.00
60705;BME280;46545;38.014;-7.874;2022-09-12T07:29:42;65176.66;;;-145.13;100.00
60705;BME280;46545;38.014;-7.874;2022-09-12T07:31:45;65176.66;;;-145.13;100.00
60705;BME280;46545;38.014;-7.874;2022-09-12T07:33:46;65176.66;;;-145.13;100.00
60705;BME280;46545;38.014;-7.874;2022-09-12T07:35:46;65176.66;;;-145.13;100.00
60705;BME280;46545;38.014;-7.874;2022-09-12T07:37:47;65176.66;;;-145.13;100.00
60705;BME280;46545;38.014;-7.874;2022-09-12T07:39:47;65176.66;;;-145.13;100.00
60705;BME280;46545;38.014;-7.874;2022-09-12T07:41:48;65176.66;;;-145.13;100.00
60705;BME280;46545;38.014;-7.874;2022-09-12T07:43:52;65176.66;;;-145.13;100.00
60705;BME280;46545;38.014;-7.874;2022-09-12T07:45:54;65176.66;;;-145.13;100.00
60705;BME280;46545;38.014;-7.874;2022-09-12T07:47:54;65176.66;;;-145.13;100.00
60705;BME280;46545;38.014;-7.874;2022-09-12T07:49:55;65176.66;;;-145.13;100.00
60705;BME280;46545;38.014;-7.874;2022-09-12T07:51:56;65176.66;;;-145.13;100.00
60705;BME280;46545;38.014;-7.874;2022-09-12T07:53:56;65176.66;;;-145.13;100.00
60705;BME280;46545;38.014;-7.874;2022-09-12T07:55:57;65176.66;;;-145.13;100.00
60705;BME280;46545;38.014;-7.874;2022-09-12T07:57:58;65176.66;;;-145.13;100.00
60705;BME280;46545;38.014;-7.874;2022-09-12T07:59:58;65176.66;;;-145.13;100.00
60705;BME280;46545;38.014;-7.874;2022-09-12T08:01:58;65176.66;;;-145.13;100.00
60705;BME280;46545;38.014;-7.874;2022-09-12T08:03:59;65176.66;;;-145.13;100.00
60705;BME280;46545;38.014;-7.874;2022-09-12T08:06:03;65176.66;;;-145.13;100.00
60705;BME280;46545;38.014;-7.874;2022-09-12T08:08:04;65176.66;;;-145.13;100.00
60705;BME280;46545;38.014;-7.874;2022-09-12T08:10:05;65176.66;;;-145.13;100.00
60705;BME280;46545;38.014;-7.874;2022-09-12T08:12:05;65176.66;;;-145.13;100.00
60705;BME280;46545;38.014;-7.874;2022-09-12T08:14:06;65176.66;;;-145.13;100.00
60705;BME280;46545;38.014;-7.874;2022-09-12T08:16:11;65176.66;;;-145.13;100.00
60705;BME280;46545;38.014;-7.874;2022-09-12T08:18:12;65176.66;;;-145.13;100.00
60705;BME280;46545;38.014;-7.874;2022-09-12T08:20:12;65176.66;;;-145.13;100.00
60705;BME280;46545;38.014;-7.874;2022-09-12T08:22:13;65176.66;;;-145.13;100.00
60705;BME280;46545;38.014;-7.874;2022-09-12T08:24:13;65176.66;;;-145.13;100.00
60705;BME280;46545;38.014;-7.874;2022-09-12T08:26:14;65176.66;;;-145.13;100.00
60705;BME280;46545;38.014;-7.874;2022-09-12T08:28:15;65176.66;;;-145.13;100.00
60705;BME280;46545;38.014;-7.874;2022-09-12T08:30:18;65176.66;;;-145.13;100.00
60705;BME280;46545;38.014;-7.874;2022-09-12T08:32:18;65176.66;;;-145.13;100.00
60705;BME280;46545;38.014;-7.874;2022-09-12T08:34:19;65176.66;;;-145.13;100.00
60705;BME280;46545;38.014;-7.874;2022-09-12T08:36:21;65176.66;;;-145.13;100.00
60705;BME280;46545;38.014;-7.874;2022-09-12T08:38:22;65176.66;;;-145.13;100.00
60705;BME280;46545;38.014;-7.874;2022-09-12T08:40:22;65176.66;;;-145.13;100.00
60705;BME280;46545;38.014;-7.874;2022-09-12T08:42:27;65176.66;;;-145.13;100.00
60705;BME280;46545;38.014;-7.874;2022-09-12T08:44:37;65176.66;;;-145.13;100.00
60705;BME280;46545;38.014;-7.874;2022-09-12T08:48:45;65176.66;;;-145.13;100.00
60705;BME280;46545;38.014;-7.874;2022-09-12T08:50:46;65176.66;;;-145.13;100.00
60705;BME280;46545;38.014;-7.874;2022-09-12T08:52:49;65176.66;;;-145.13;100.00
60705;BME280;46545;38.014;-7.874;2022-09-12T08:54:51;65176.66;;;-145.13;100.00
60705;BME280;46545;38.014;-7.874;2022-09-12T08:56:52;65176.66;;;-145.13;100.00
60705;BME280;46545;38.014;-7.874;2022-09-12T08:58:57;65176.66;;;-145.13;100.00
60705;BME280;46545;38.014;-7.874;2022-09-12T09:03:09;65176.66;;;-145.13;100.00
60705;BME280;46545;38.014;-7.874;2022-09-12T09:12:06;65176.66;;;-145.13;100.00
60705;BME280;46545;38.014;-7.874;2022-09-12T09:16:43;65176.66;;;-145.13;100.00
60705;BME280;46545;38.014;-7.874;2022-09-12T09:18:43;65176.66;;;-145.13;100.00
60705;BME280;46545;38.014;-7.874;2022-09-12T09:20:56;65176.66;;;-145.13;100.00
60705;BME280;46545;38.014;-7.874;2022-09-12T09:23:00;65176.66;;;-145.13;100.00
60705;BME280;46545;38.014;-7.874;2022-09-12T09:25:11;65176.66;;;-145.13;100.00
60705;BME280;46545;38.014;-7.874;2022-09-12T09:29:36;65176.66;;;-145.13;100.00
60705;BME280;46545;38.014;-7.874;2022-09-12T09:31:38;65176.66;;;-145.13;100.00
60705;BME280;46545;38.014;-7.874;2022-09-12T09:33:39;65176.66;;;-145.13;100.00
60705;BME280;46545;38.014;-7.874;2022-09-12T09:35:44;65176.66;;;-145.13;100.00
60705;BME280;46545;38.014;-7.874;2022-09-12T09:40:23;65176.66;;;-145.13;100.00
60705;BME280;46545;38.014;-7.874;2022-09-12T09:43:09;65176.66;;;-145.13;100.00
60705;BME280;46545;38.014;-7.874;2022-09-12T09:44:48;65176.66;;;-145.13;100.00
60705;BME280;46545;38.014;-7.874;2022-09-12T09:46:53;65176.66;;;-145.13;100.00
60705;BME280;46545;38.014;-7.874;2022-09-12T09:48:53;65176.66;;;-145.13;100.00
60705;BME280;46545;38.014;-7.874;2022-09-12T09:50:59;65176.66;;;-145.13;100.00
60705;BME280;46545;38.014;-7.874;2022-09-12T09:53:01;65176.66;;;-145.13;100.00
60705;BME280;46545;38.014;-7.874;2022-09-12T09:55:03;65176.66;;;-145.13;100.00
60705;BME280;46545;38.014;-7.874;2022-09-12T09:57:28;65176.66;;;-145.13;100.00
60705;BME280;46545;38.014;-7.874;2022-09-12T09:59:29;65176.66;;;-145.13;100.00
60705;BME280;46545;38.014;-7.874;2022-09-12T10:01:30;65176.66;;;-145.13;100.00
60705;BME280;46545;38.014;-7.874;2022-09-12T10:03:32;65176.66;;;-145.13;100.00
60705;BME280;46545;38.014;-7.874;2022-09-12T10:05:52;65176.66;;;-145.13;100.00
60705;BME280;46545;38.014;-7.874;2022-09-12T10:07:53;65176.66;;;-145.13;100.00
60705;BME280;46545;38.014;-7.874;2022-09-12T10:12:45;65176.66;;;-145.13;100.00
60705;BME280;46545;38.014;-7.874;2022-09-12T10:14:35;65176.66;;;-145.13;100.00
60705;BME280;46545;38.014;-7.874;2022-09-12T10:17:20;65176.66;;;-145.13;100.00
60705;BME280;46545;38.014;-7.874;2022-09-12T10:19:03;65176.66;;;-145.13;100.00
60705;BME280;46545;38.014;-7.874;2022-09-12T10:21:18;65176.66;;;-145.13;100.00
60705;BME280;46545;38.014;-7.874;2022-09-12T10:25:20;65176.66;;;-145.13;100.00
60705;BME280;46545;38.014;-7.874;2022-09-12T10:27:25;65176.66;;;-145.13;100.00
60705;BME280;46545;38.014;-7.874;2022-09-12T10:29:28;65176.66;;;-145.13;100.00
60705;BME280;46545;38.014;-7.874;2022-09-12T10:31:35;65176.66;;;-145.13;100.00
60705;BME280;46545;38.014;-7.874;2022-09-12T10:33:46;65176.66;;;-145.13;100.00
60705;BME280;46545;38.014;-7.874;2022-09-12T10:35:52;65176.66;;;-145.13;100.00
60705;BME280;46545;38.014;-7.874;2022-09-12T10:37:54;65176.66;;;-145.13;100.00
60705;BME280;46545;38.014;-7.874;2022-09-12T10:39:57;65176.66;;;-145.13;100.00
60705;BME280;46545;38.014;-7.874;2022-09-12T10:41:58;65176.66;;;-145.13;100.00
60705;BME280;46545;38.014;-7.874;2022-09-12T10:44:13;65176.66;;;-145.13;100.00
60705;BME280;46545;38.014;-7.874;2022-09-12T10:52:30;65176.66;;;-145.13;100.00
60705;BME280;46545;38.014;-7.874;2022-09-12T10:54:30;65176.66;;;-145.13;100.00
60705;BME280;46545;38.014;-7.874;2022-09-12T10:56:31;65176.66;;;-145.13;100.00
60705;BME280;46545;38.014;-7.874;2022-09-12T10:58:46;65176.66;;;-145.13;100.00
60705;BME280;46545;38.014;-7.874;2022-09-12T11:00:52;65176.66;;;-145.13;100.00
60705;BME280;46545;38.014;-7.874;2022-09-12T11:09:51;97996.09;;;25.18;64.48
60705;BME280;46545;38.014;-7.874;2022-09-12T11:12:04;97985.03;;;25.14;64.12
60705;BME280;46545;38.014;-7.874;2022-09-12T11:14:17;97978.47;;;25.19;63.32
60705;BME280;46545;38.014;-7.874;2022-09-12T11:22:39;65176.66;;;-145.13;100.00
60705;BME280;46545;38.014;-7.874;2022-09-12T11:24:54;65176.66;;;-145.13;100.00
60705;BME280;46545;38.014;-7.874;2022-09-12T11:29:29;97988.53;;;26.34;57.63
60705;BME280;46545;38.014;-7.874;2022-09-12T11:31:40;97976.97;;;26.51;57.09
60705;BME280;46545;38.014;-7.874;2022-09-12T11:33:45;97983.50;;;26.70;56.48
60705;BME280;46545;38.014;-7.874;2022-09-12T11:35:49;97978.13;;;26.81;55.66
60705;BME280;46545;38.014;-7.874;2022-09-12T11:42:16;97975.91;;;26.90;54.40
60705;BME280;46545;38.014;-7.874;2022-09-12T11:50:26;65176.66;;;-145.13;100.00
60705;BME280;46545;38.014;-7.874;2022-09-12T11:52:28;65176.66;;;-145.13;100.00
60705;BME280;46545;38.014;-7.874;2022-09-12T11:56:44;65176.66;;;-145.13;100.00